createdAt,value
2023-03-20T00:02:27.292Z,8.53
2023-03-20T00:04:55.765Z,8.45
2023-03-20T00:07:26.050Z,8.45
2023-03-20T00:09:55.058Z,8.43
2023-03-20T00:12:26.408Z,7.37
2023-03-20T00:14:55.214Z,8.48
2023-03-20T00:17:23.533Z,8.46
2023-03-20T00:19:52.043Z,8.46
2023-03-20T00:22:20.364Z,8.45
2023-03-20T00:24:50.300Z,8.43
2023-03-20T00:27:19.468Z,7.49
2023-03-20T00:29:48.360Z,8.30
2023-03-20T00:32:17.004Z,8.12
2023-03-20T00:34:45.440Z,8.12
2023-03-20T00:37:14.755Z,8.08
2023-03-20T00:39:43.280Z,8.06
2023-03-20T00:42:22.405Z,8.06
2023-03-20T00:44:54.295Z,8.06
2023-03-20T00:47:27.325Z,7.92
2023-03-20T00:49:58.234Z,8.00
2023-03-20T00:52:27.389Z,7.98
2023-03-20T00:54:55.838Z,7.97
2023-03-20T00:57:27.982Z,7.53
2023-03-20T01:00:00.164Z,7.91
2023-03-20T01:02:31.455Z,7.42
2023-03-20T01:05:02.182Z,7.75
2023-03-20T01:07:30.733Z,7.68
2023-03-20T01:09:59.239Z,7.63
2023-03-20T01:12:29.134Z,7.63
2023-03-20T01:14:59.998Z,7.66
2023-03-20T01:17:30.513Z,7.70
2023-03-20T01:19:59.966Z,7.73
2023-03-20T01:22:28.326Z,7.69
2023-03-20T01:24:56.927Z,7.70
2023-03-20T01:27:25.753Z,7.71
2023-03-20T01:29:55.767Z,7.69
2023-03-20T01:32:24.275Z,7.60
2023-03-20T01:34:54.953Z,7.48
2023-03-20T01:37:26.848Z,7.45
2023-03-20T01:39:58.880Z,7.44
2023-03-20T01:42:28.899Z,7.48
2023-03-20T01:44:59.007Z,7.49
2023-03-20T01:47:29.870Z,7.42
2023-03-20T01:50:32.842Z,7.23
2023-03-20T01:53:24.673Z,7.08
2023-03-20T01:55:59.758Z,7.06
2023-03-20T01:58:39.441Z,6.98
2023-03-20T02:01:12.544Z,6.95
2023-03-20T02:03:47.237Z,6.67
2023-03-20T02:06:48.057Z,6.81
2023-03-20T02:09:20.448Z,6.82
2023-03-20T02:11:51.132Z,6.68
2023-03-20T02:14:22.827Z,6.50
2023-03-20T02:16:58.117Z,6.49
2023-03-20T02:19:46.798Z,6.58
2023-03-20T02:22:53.759Z,6.59
2023-03-20T02:26:02.119Z,6.54
2023-03-20T02:29:21.102Z,6.62
2023-03-20T02:32:31.553Z,6.62
2023-03-20T02:35:41.370Z,6.68
2023-03-20T02:38:32.181Z,6.70
2023-03-20T02:41:08.311Z,6.68
2023-03-20T02:43:44.777Z,6.74
2023-03-20T02:46:20.930Z,6.65
2023-03-20T02:48:57.402Z,6.72
2023-03-20T02:51:33.488Z,6.62
2023-03-20T02:54:09.753Z,6.62
2023-03-20T02:56:48.422Z,6.58
2023-03-20T02:59:25.049Z,6.55
2023-03-20T03:02:07.628Z,6.49
2023-03-20T03:04:39.794Z,6.48
2023-03-20T03:07:12.222Z,6.43
2023-03-20T03:09:47.607Z,6.38
2023-03-20T03:12:19.286Z,6.32
2023-03-20T03:14:50.532Z,6.13
2023-03-20T03:17:24.874Z,6.29
2023-03-20T03:19:57.859Z,6.21
2023-03-20T03:22:27.410Z,6.18
2023-03-20T03:24:56.399Z,5.89
2023-03-20T03:27:29.125Z,6.18
2023-03-20T03:30:00.243Z,6.12
2023-03-20T03:32:33.548Z,6.07
2023-03-20T03:35:03.757Z,6.09
2023-03-20T03:37:42.728Z,6.02
2023-03-20T03:40:21.140Z,5.92
2023-03-20T03:42:57.389Z,5.86
2023-03-20T03:45:33.213Z,5.81
2023-03-20T03:48:06.587Z,5.72
2023-03-20T03:50:39.746Z,5.63
2023-03-20T03:53:12.549Z,5.59
2023-03-20T03:55:45.100Z,5.56
2023-03-20T03:58:19.838Z,5.56
2023-03-20T04:00:52.091Z,5.54
2023-03-20T04:03:25.583Z,5.47
2023-03-20T04:05:57.563Z,5.39
2023-03-20T04:08:27.954Z,5.08
2023-03-20T04:10:56.448Z,5.32
2023-03-20T04:13:24.738Z,5.28
2023-03-20T04:15:53.433Z,5.24
2023-03-20T04:18:23.466Z,4.99
2023-03-20T04:20:52.593Z,5.29
2023-03-20T04:23:21.005Z,5.18
2023-03-20T04:25:49.390Z,5.27
2023-03-20T04:28:19.714Z,5.26
2023-03-20T04:31:08.902Z,5.24
2023-03-20T04:33:57.392Z,5.25
2023-03-20T04:36:44.514Z,5.17
2023-03-20T04:39:15.725Z,5.16
2023-03-20T04:41:44.177Z,5.11
2023-03-20T04:44:12.581Z,5.09
2023-03-20T04:46:42.997Z,4.95
2023-03-20T04:49:18.227Z,4.94
2023-03-20T04:51:46.851Z,4.70
2023-03-20T04:54:17.080Z,4.86
2023-03-20T04:56:45.816Z,4.76
2023-03-20T04:59:18.134Z,4.58
2023-03-20T05:01:47.136Z,4.73
2023-03-20T05:04:15.690Z,4.69
2023-03-20T05:06:49.284Z,4.66
2023-03-20T05:09:20.467Z,4.55
2023-03-20T05:11:50.463Z,4.52
2023-03-20T05:14:42.878Z,4.46
2023-03-20T05:17:37.332Z,4.45
2023-03-20T05:20:18.577Z,4.44
2023-03-20T05:23:06.300Z,4.43
2023-03-20T05:25:54.446Z,4.48
2023-03-20T05:28:34.820Z,4.51
2023-03-20T05:31:29.227Z,4.47
2023-03-20T05:34:20.678Z,4.44
2023-03-20T05:37:09.367Z,5.31
2023-03-20T05:40:02.113Z,4.82
2023-03-20T05:42:33.567Z,4.61
2023-03-20T05:45:20.698Z,4.51
2023-03-20T05:48:09.490Z,4.46
2023-03-20T05:50:37.911Z,4.37
2023-03-20T05:53:17.224Z,4.37
2023-03-20T05:56:10.600Z,4.36
2023-03-20T05:58:42.504Z,4.37
2023-03-20T06:01:31.078Z,4.34
2023-03-20T06:03:59.497Z,4.30
2023-03-20T06:06:54.167Z,4.24
2023-03-20T06:09:24.084Z,4.24
2023-03-20T06:11:53.905Z,4.29
2023-03-20T06:14:22.447Z,4.28
2023-03-20T06:16:58.387Z,4.30
2023-03-20T06:19:27.953Z,4.38
2023-03-20T06:21:57.376Z,4.36
2023-03-20T06:24:26.337Z,4.46
2023-03-20T06:26:56.884Z,4.57
2023-03-20T06:29:26.707Z,4.65
2023-03-20T06:31:58.828Z,4.68
2023-03-20T06:34:30.984Z,4.74
2023-03-20T06:36:59.480Z,4.85
2023-03-20T06:39:28.746Z,4.96
2023-03-20T06:41:59.345Z,5.09
2023-03-20T06:44:28.189Z,5.20
2023-03-20T06:47:34.844Z,5.55
2023-03-20T06:50:03.361Z,5.73
2023-03-20T06:52:34.296Z,5.91
2023-03-20T06:55:33.858Z,6.06
2023-03-20T06:58:03.909Z,6.24
2023-03-20T07:00:33.335Z,6.41
2023-03-20T07:03:05.985Z,6.62
2023-03-20T07:05:35.337Z,6.80
2023-03-20T07:08:08.641Z,7.01
2023-03-20T07:10:37.853Z,7.17
2023-03-20T07:13:08.665Z,7.36
2023-03-20T07:15:39.263Z,7.54
2023-03-20T07:18:09.822Z,7.74
2023-03-20T07:20:38.620Z,7.93
2023-03-20T07:23:07.221Z,8.14
2023-03-20T07:25:42.955Z,8.40
2023-03-20T07:28:18.439Z,8.62
2023-03-20T07:30:53.188Z,8.89
2023-03-20T07:33:21.798Z,9.15
2023-03-20T07:35:54.581Z,9.43
2023-03-20T07:38:24.205Z,9.70
2023-03-20T07:41:06.029Z,9.90
2023-03-20T07:43:37.876Z,10.07
2023-03-20T07:46:25.748Z,10.22
2023-03-20T07:48:56.761Z,10.41
2023-03-20T07:51:25.751Z,10.57
2023-03-20T07:53:54.078Z,10.71
2023-03-20T07:56:22.479Z,10.79
2023-03-20T07:58:52.319Z,10.97
2023-03-20T08:01:20.935Z,11.13
2023-03-20T08:03:49.511Z,11.25
2023-03-20T08:06:18.157Z,11.33
2023-03-20T08:08:46.851Z,11.57
2023-03-20T08:11:15.695Z,11.59
2023-03-20T08:13:44.127Z,11.94
2023-03-20T08:16:17.016Z,12.12
2023-03-20T08:18:45.525Z,12.30
2023-03-20T08:21:16.808Z,12.48
2023-03-20T08:23:45.255Z,12.63
2023-03-20T08:26:13.875Z,12.77
2023-03-20T08:28:48.071Z,12.94
2023-03-20T08:31:19.248Z,13.16
2023-03-20T08:33:48.675Z,13.33
2023-03-20T08:36:19.895Z,13.44
2023-03-20T08:38:49.545Z,13.52
2023-03-20T08:41:18.602Z,13.61
2023-03-20T08:43:47.855Z,13.87
2023-03-20T08:46:16.299Z,14.01
2023-03-20T08:48:46.435Z,14.16
2023-03-20T08:51:15.186Z,14.23
2023-03-20T08:53:43.830Z,14.22
2023-03-20T08:56:12.983Z,14.21
2023-03-20T08:58:41.452Z,14.22
2023-03-20T09:01:10.999Z,14.25
2023-03-20T09:03:39.513Z,14.34
2023-03-20T09:06:10.773Z,14.46
2023-03-20T09:08:39.664Z,14.36
2023-03-20T09:11:08.358Z,14.59
2023-03-20T09:13:37.296Z,14.57
2023-03-20T09:16:06.712Z,14.57
2023-03-20T09:18:35.274Z,14.60
2023-03-20T09:21:04.001Z,14.60
2023-03-20T09:23:34.900Z,14.33
2023-03-20T09:26:03.706Z,14.65
2023-03-20T09:28:33.545Z,14.68
2023-03-20T09:31:02.408Z,14.68
2023-03-20T09:33:30.887Z,14.66
2023-03-20T09:35:59.395Z,14.69
2023-03-20T09:38:27.858Z,14.68
2023-03-20T09:41:00.122Z,14.66
2023-03-20T09:43:46.331Z,14.62
2023-03-20T09:46:25.572Z,14.57
2023-03-20T09:49:03.610Z,14.49
2023-03-20T09:51:39.507Z,14.61
2023-03-20T09:54:13.453Z,14.67
2023-03-20T09:56:43.407Z,14.71
2023-03-20T09:59:17.785Z,14.75
2023-03-20T10:01:52.145Z,14.79
2023-03-20T10:04:20.969Z,14.80
2023-03-20T10:06:49.422Z,14.87
2023-03-20T10:09:22.222Z,14.96
2023-03-20T10:12:22.851Z,15.03
2023-03-20T10:14:59.813Z,15.01
2023-03-20T10:17:47.487Z,15.04
2023-03-20T10:20:25.396Z,15.06
2023-03-20T10:22:58.028Z,15.10
2023-03-20T10:25:32.635Z,14.97
2023-03-20T10:28:05.637Z,15.26
2023-03-20T10:30:51.159Z,15.39
2023-03-20T10:33:30.643Z,15.43
2023-03-20T10:36:11.936Z,15.55
2023-03-20T10:38:47.015Z,15.63
2023-03-20T10:41:20.180Z,15.54
2023-03-20T10:43:52.823Z,15.86
2023-03-20T10:46:26.686Z,15.97
2023-03-20T10:49:01.273Z,16.11
2023-03-20T10:51:40.384Z,16.18
2023-03-20T10:54:20.036Z,16.29
2023-03-20T10:56:50.886Z,16.50
2023-03-20T10:59:25.031Z,16.46
2023-03-20T11:01:53.763Z,16.80
2023-03-20T11:04:22.612Z,16.84
2023-03-20T11:06:58.648Z,16.86
2023-03-20T11:09:29.923Z,16.56
2023-03-20T11:12:00.801Z,16.92
2023-03-20T11:14:35.647Z,17.06
2023-03-20T11:17:05.741Z,17.17
2023-03-20T11:19:36.257Z,17.20
2023-03-20T11:22:10.151Z,17.18
2023-03-20T11:24:43.217Z,17.20
2023-03-20T11:27:16.214Z,17.27
2023-03-20T11:29:49.810Z,17.31
2023-03-20T11:32:28.055Z,17.27
2023-03-20T11:34:57.899Z,17.27
2023-03-20T11:37:29.479Z,17.12
2023-03-20T11:40:00.464Z,17.32
2023-03-20T11:42:30.569Z,17.29
2023-03-20T11:45:02.873Z,17.27
2023-03-20T11:47:35.124Z,17.13
2023-03-20T11:50:06.602Z,17.17
2023-03-20T11:52:36.569Z,17.10
2023-03-20T11:55:08.610Z,17.34
2023-03-20T11:57:39.558Z,17.38
2023-03-20T12:00:21.536Z,17.39
2023-03-20T12:02:50.837Z,17.43
2023-03-20T12:05:31.691Z,17.44
2023-03-20T12:08:04.401Z,17.39
2023-03-20T12:10:39.585Z,17.49
2023-03-20T12:13:14.456Z,17.23
2023-03-20T12:15:49.111Z,17.55
2023-03-20T12:18:23.582Z,17.59
2023-03-20T12:21:04.247Z,17.60
2023-03-20T12:23:36.610Z,17.70
2023-03-20T12:26:10.129Z,17.76
2023-03-20T12:28:44.788Z,17.85
2023-03-20T12:31:24.064Z,17.85
2023-03-20T12:33:56.543Z,17.57
2023-03-20T12:36:32.461Z,17.90
2023-03-20T12:39:01.325Z,17.94
2023-03-20T12:41:35.834Z,17.80
2023-03-20T12:44:25.816Z,18.07
2023-03-20T12:47:08.484Z,18.06
2023-03-20T12:49:45.507Z,18.11
2023-03-20T12:52:22.386Z,18.18
2023-03-20T12:55:13.343Z,18.20
2023-03-20T12:57:51.718Z,18.15
2023-03-20T13:00:29.128Z,18.26
2023-03-20T13:03:11.774Z,18.30
2023-03-20T13:05:48.726Z,18.34
2023-03-20T13:08:48.815Z,18.47
2023-03-20T13:11:26.066Z,18.54
2023-03-20T13:13:57.955Z,18.65
2023-03-20T13:16:36.179Z,18.69
2023-03-20T13:19:13.859Z,18.34
2023-03-20T13:21:48.945Z,18.53
2023-03-20T13:24:28.626Z,18.06
2023-03-20T13:27:07.206Z,18.77
2023-03-20T13:29:46.082Z,18.86
2023-03-20T13:32:28.767Z,18.85
2023-03-20T13:35:23.654Z,18.76
2023-03-20T13:37:56.060Z,18.83
2023-03-20T13:40:28.459Z,18.87
2023-03-20T13:43:01.029Z,18.82
2023-03-20T13:45:36.227Z,18.56
2023-03-20T13:48:20.899Z,18.83
2023-03-20T13:50:58.025Z,18.82
2023-03-20T13:53:36.370Z,18.74
2023-03-20T13:56:16.196Z,18.79
2023-03-20T13:59:04.996Z,18.84
2023-03-20T14:01:43.535Z,18.90
2023-03-20T14:04:17.508Z,18.89
2023-03-20T14:06:51.516Z,18.92
2023-03-20T14:09:29.681Z,18.98
2023-03-20T14:12:02.857Z,18.91
2023-03-20T14:14:32.633Z,19.08
2023-03-20T14:17:10.457Z,19.06
2023-03-20T14:19:40.124Z,19.05
2023-03-20T14:22:17.697Z,18.31
2023-03-20T14:24:53.393Z,18.85
2023-03-20T14:27:36.819Z,18.74
2023-03-20T14:30:40.902Z,18.60
2023-03-20T14:33:27.854Z,18.57
2023-03-20T14:36:21.237Z,18.57
2023-03-20T14:39:06.795Z,18.59
2023-03-20T14:41:49.928Z,18.62
2023-03-20T14:44:27.953Z,18.57
2023-03-20T14:47:03.609Z,18.56
2023-03-20T14:49:50.308Z,18.46
2023-03-20T14:52:44.114Z,18.58
2023-03-20T14:55:31.777Z,18.51
2023-03-20T14:58:04.592Z,18.45
2023-03-20T15:00:37.955Z,18.41
2023-03-20T15:03:10.023Z,18.37
2023-03-20T15:05:40.548Z,18.30
2023-03-20T15:08:11.553Z,18.27
2023-03-20T15:10:48.843Z,18.34
2023-03-20T15:13:18.856Z,18.37
2023-03-20T15:15:55.541Z,18.16
2023-03-20T15:18:26.366Z,18.35
2023-03-20T15:20:57.672Z,18.12
2023-03-20T15:23:27.351Z,18.33
2023-03-20T15:25:57.120Z,18.33
2023-03-20T15:28:27.567Z,18.28
2023-03-20T15:30:59.409Z,18.23
2023-03-20T15:33:30.743Z,18.39
2023-03-20T15:36:00.223Z,18.30
2023-03-20T15:38:34.010Z,18.23
2023-03-20T15:41:07.557Z,18.21
2023-03-20T15:43:38.299Z,18.22
2023-03-20T15:46:18.053Z,18.24
2023-03-20T15:48:50.541Z,18.25
2023-03-20T15:51:21.425Z,18.12
2023-03-20T15:53:50.540Z,18.05
2023-03-20T15:56:25.296Z,18.10
2023-03-20T15:58:55.495Z,18.14
2023-03-20T16:01:25.872Z,18.11
2023-03-20T16:03:58.433Z,18.03
2023-03-20T16:06:28.133Z,17.98
2023-03-20T16:09:02.476Z,17.93
2023-03-20T16:11:42.173Z,17.93
2023-03-20T16:14:15.894Z,17.88
2023-03-20T16:16:45.479Z,17.81
2023-03-20T16:19:15.266Z,17.74
2023-03-20T16:21:49.093Z,17.70
2023-03-20T16:24:22.233Z,17.69
2023-03-20T16:26:54.497Z,17.67
2023-03-20T16:29:24.507Z,17.60
2023-03-20T16:31:58.174Z,17.56
2023-03-20T16:34:31.900Z,17.47
2023-03-20T16:37:03.331Z,17.51
2023-03-20T16:39:32.487Z,17.52
2023-03-20T16:42:13.180Z,17.53
2023-03-20T16:44:42.806Z,17.47
2023-03-20T16:47:23.696Z,17.47
2023-03-20T16:50:08.951Z,17.33
2023-03-20T16:52:39.709Z,17.39
2023-03-20T16:55:16.440Z,17.32
2023-03-20T16:57:51.135Z,16.36
2023-03-20T17:00:25.794Z,17.17
2023-03-20T17:03:02.241Z,17.13
2023-03-20T17:05:55.770Z,17.08
2023-03-20T17:08:29.945Z,17.00
2023-03-20T17:11:01.692Z,16.98
2023-03-20T17:13:31.599Z,16.92
2023-03-20T17:16:01.366Z,16.87
2023-03-20T17:18:30.374Z,16.79
2023-03-20T17:20:59.137Z,16.72
2023-03-20T17:23:27.958Z,16.62
2023-03-20T17:25:56.356Z,16.51
2023-03-20T17:28:30.083Z,16.41
2023-03-20T17:31:00.903Z,16.27
2023-03-20T17:33:30.007Z,16.01
2023-03-20T17:35:59.980Z,15.95
2023-03-20T17:38:28.635Z,15.71
2023-03-20T17:40:57.997Z,15.47
2023-03-20T17:43:27.427Z,15.22
2023-03-20T17:45:55.855Z,15.07
2023-03-20T17:48:27.100Z,14.93
2023-03-20T17:50:55.581Z,14.86
2023-03-20T17:53:26.277Z,14.49
2023-03-20T17:55:54.766Z,14.72
2023-03-20T17:58:24.977Z,14.29
2023-03-20T18:00:55.373Z,14.43
2023-03-20T18:03:25.250Z,14.24
2023-03-20T18:05:54.032Z,13.99
2023-03-20T18:08:24.063Z,13.80
2023-03-20T18:10:54.458Z,13.63
2023-03-20T18:13:25.411Z,13.03
2023-03-20T18:15:56.931Z,13.12
2023-03-20T18:18:27.915Z,12.99
2023-03-20T18:20:57.848Z,12.84
2023-03-20T18:23:26.671Z,12.74
2023-03-20T18:25:55.503Z,12.65
2023-03-20T18:28:24.832Z,12.55
2023-03-20T18:30:54.824Z,12.49
2023-03-20T18:33:27.866Z,12.46
2023-03-20T18:35:58.148Z,12.43
2023-03-20T18:38:28.331Z,12.41
2023-03-20T18:40:57.262Z,12.39
2023-03-20T18:43:26.023Z,12.35
2023-03-20T18:45:55.041Z,12.19
2023-03-20T18:48:25.240Z,11.98
2023-03-20T18:51:01.247Z,11.84
2023-03-20T18:53:31.952Z,11.81
2023-03-20T18:56:00.960Z,11.66
2023-03-20T18:58:31.957Z,11.53
2023-03-20T19:01:03.860Z,11.61
2023-03-20T19:03:39.454Z,12.71
2023-03-20T19:06:14.478Z,11.84
2023-03-20T19:08:46.380Z,11.89
2023-03-20T19:11:18.418Z,11.68
2023-03-20T19:13:51.405Z,11.56
2023-03-20T19:16:25.959Z,11.43
2023-03-20T19:18:56.476Z,11.31
2023-03-20T19:21:26.568Z,11.16
2023-03-20T19:23:58.251Z,11.04
2023-03-20T19:26:28.387Z,10.94
2023-03-20T19:28:58.983Z,10.84
2023-03-20T19:31:28.018Z,10.70
2023-03-20T19:33:57.093Z,10.58
2023-03-20T19:36:29.434Z,10.46
2023-03-20T19:39:01.019Z,10.41
2023-03-20T19:41:32.275Z,10.26
2023-03-20T19:44:01.714Z,10.28
2023-03-20T19:46:40.800Z,10.21
2023-03-20T19:49:19.067Z,10.16
2023-03-20T19:51:48.163Z,10.22
2023-03-20T19:54:18.513Z,9.92
2023-03-20T19:56:47.006Z,10.15
2023-03-20T19:59:16.869Z,10.06
2023-03-20T20:01:46.786Z,9.97
2023-03-20T20:04:16.354Z,9.89
2023-03-20T20:06:47.403Z,9.81
2023-03-20T20:09:18.274Z,9.41
2023-03-20T20:11:46.757Z,9.67
2023-03-20T20:14:15.469Z,9.55
2023-03-20T20:16:45.990Z,9.44
2023-03-20T20:19:14.710Z,9.33
2023-03-20T20:24:33.381Z,9.13
2023-03-20T20:27:18.189Z,9.05
2023-03-20T20:29:51.604Z,8.92
2023-03-20T20:32:23.304Z,8.84
2023-03-20T20:35:39.906Z,8.80
2023-03-20T20:38:27.175Z,8.72
2023-03-20T20:40:32.457Z,8.59
2023-03-20T20:43:02.413Z,8.58
2023-03-20T20:45:32.250Z,8.52
2023-03-20T20:48:01.491Z,8.62
2023-03-20T20:50:32.646Z,8.70
2023-03-20T20:53:01.925Z,8.61
2023-03-20T20:55:32.299Z,8.48
2023-03-20T20:58:01.442Z,8.40
2023-03-20T21:00:48.435Z,8.31
2023-03-20T21:03:17.319Z,8.18
2023-03-20T21:05:45.701Z,8.12
2023-03-20T21:08:14.668Z,8.05
2023-03-20T21:10:46.006Z,7.83
2023-03-20T21:13:14.656Z,8.06
2023-03-20T21:15:43.539Z,8.04
2023-03-20T21:18:11.992Z,8.02
2023-03-20T21:20:40.399Z,7.97
2023-03-20T21:23:08.799Z,7.97
2023-03-20T21:25:40.976Z,7.93
2023-03-20T21:28:11.949Z,7.91
2023-03-20T21:30:54.458Z,7.86
2023-03-20T21:33:30.679Z,7.84
2023-03-20T21:35:59.159Z,7.81
2023-03-20T21:41:16.817Z,7.78
2023-03-20T21:43:47.842Z,7.73
2023-03-20T21:58:22.720Z,7.58
2023-03-20T22:03:29.061Z,7.37
2023-03-20T22:18:05.895Z,7.29
2023-03-20T22:34:54.366Z,7.26
2023-03-20T22:43:26.502Z,7.10
2023-03-20T22:45:42.943Z,7.18
2023-03-20T22:48:15.961Z,7.17
2023-03-20T22:50:45.957Z,7.10
2023-03-20T22:53:14.433Z,7.05
2023-03-20T22:55:44.228Z,6.84
2023-03-20T22:58:12.875Z,6.92
2023-03-20T23:00:41.638Z,6.84
2023-03-20T23:03:25.546Z,6.74
2023-03-20T23:06:07.574Z,6.82
2023-03-20T23:08:47.974Z,6.76
2023-03-20T23:11:21.573Z,6.71
2023-03-20T23:13:50.025Z,6.67
2023-03-20T23:16:19.207Z,6.64
2023-03-20T23:18:47.648Z,6.57
2023-03-20T23:21:17.479Z,6.37
2023-03-20T23:23:46.177Z,6.54
2023-03-20T23:26:16.355Z,6.51
2023-03-20T23:28:47.674Z,6.54
2023-03-20T23:31:18.728Z,6.56
2023-03-20T23:33:50.544Z,6.55
2023-03-20T23:36:34.914Z,6.47
2023-03-20T23:39:04.784Z,6.39
2023-03-20T23:42:01.753Z,6.34
2023-03-20T23:44:21.811Z,6.26
2023-03-20T23:46:50.499Z,6.03
2023-03-20T23:49:19.035Z,6.18
2023-03-20T23:51:48.874Z,6.12
2023-03-20T23:54:17.497Z,6.06
2023-03-20T23:56:45.940Z,6.03
2023-03-20T23:59:21.570Z,5.97
